Blanchard, Iowa
Current Conditions -  °F | °C
As of 10:15 PM on Wednesday 28 Jan 2015 (Local Time) from KICL Reporting Station
Clear Clear  
Wind Chill: 41°   Ceiling: Unl
Heat Index: 48°   Visibility: 10mi
Dew Point: 37°   Wind: 21mph
Humidity: 66%   Direction: 320°NW
Pressure: 29.8"   Gusts: 30mph
Location:  40.58°N, 95.23°W
Report Text: KICL 290415Z AUTO 32018G26KT 10SM CLR 09/03 A2980 RMK AO2
Loading
Personal Weather Stations






























Interactive Weather Map New forecast layout! Learn more

10-Day Weather Forecast

Advertisements
Track Severe Weather on mobile